Time;durP1;ratioP1;P1;durP2;ratioP2;P2;SDS_P1;SDS_P2;PMS_P1;PMS_P2;Temp;Humidity;BMP_temperature;BMP_pressure;BME280_temperature;BME280_humidity;BME280_pressure;Samples;Min_cycle;Max_cycle;Signal;HPM_P1;HPM_P2
2023/01/06 00:01:25;;;;;;;6.13;2.40;;;;;;;;;;5035850;28;20209;-85
2023/01/06 00:03:57;;;;;;;11.93;3.93;;;;;;;;;;5052415;28;20245;-85
2023/01/06 00:06:27;;;;;;;13.63;3.97;;;;;;;;;;5052383;28;20205;-85
2023/01/06 00:08:57;;;;;;;10.07;3.47;;;;;;;;;;5052423;28;20270;-85
2023/01/06 00:11:26;;;;;;;5.93;2.30;;;;;;;;;;5052205;28;20258;-85
2023/01/06 00:13:55;;;;;;;12.73;4.13;;;;;;;;;;5034565;28;20197;-85
2023/01/06 00:16:23;;;;;;;6.53;2.40;;;;;;;;;;5034813;28;20227;-85
2023/01/06 00:18:54;;;;;;;4.63;2.20;;;;;;;;;;5035072;28;20223;-85
2023/01/06 00:21:23;;;;;;;2.77;1.40;;;;;;;;;;5034742;28;20199;-85
2023/01/06 00:23:52;;;;;;;4.70;2.10;;;;;;;;;;5034541;28;20288;-85
2023/01/06 00:26:21;;;;;;;8.67;2.40;;;;;;;;;;5034934;28;20223;-85
2023/01/06 00:28:52;;;;;;;5.80;2.03;;;;;;;;;;5034575;28;20223;-85
2023/01/06 00:31:21;;;;;;;4.63;2.40;;;;;;;;;;5037478;28;20194;-85
2023/01/06 00:33:49;;;;;;;6.53;3.30;;;;;;;;;;5038118;28;20200;-85
2023/01/06 00:36:20;;;;;;;5.43;2.10;;;;;;;;;;5037756;28;20227;-85
2023/01/06 00:38:49;;;;;;;4.83;2.80;;;;;;;;;;5037849;28;20295;-85
2023/01/06 00:44:05;;;;;;;9.03;2.87;;;;;;;;;;5038038;28;20297;-85
2023/01/06 00:46:33;;;;;;;6.87;2.27;;;;;;;;;;5055190;28;20198;-85
2023/01/06 00:49:02;;;;;;;8.47;4.00;;;;;;;;;;5037361;28;20200;-85
2023/01/06 00:51:33;;;;;;;3.47;1.60;;;;;;;;;;5037591;28;20205;-85
2023/01/06 00:54:01;;;;;;;11.10;3.13;;;;;;;;;;5037518;28;20219;-85
2023/01/06 00:56:30;;;;;;;4.30;1.67;;;;;;;;;;5055181;28;20223;-85
2023/01/06 00:58:58;;;;;;;5.67;3.17;;;;;;;;;;5037525;28;20206;-85
2023/01/06 01:01:28;;;;;;;0.90;0.90;;;;;;;;;;5037285;28;20255;-85
2023/01/06 01:05:13;;;;;;;6.43;2.07;;;;;;;;;;5131869;27;20348;-83
2023/01/06 01:07:42;;;;;;;5.83;2.37;;;;;;;;;;5093434;28;20200;-83
2023/01/06 01:10:11;;;;;;;4.33;1.47;;;;;;;;;;5093561;28;20264;-83
2023/01/06 01:12:39;;;;;;;5.00;1.83;;;;;;;;;;5111437;28;20199;-83
2023/01/06 01:15:08;;;;;;;4.27;2.13;;;;;;;;;;5111622;28;20224;-83
2023/01/06 01:17:37;;;;;;;1.60;1.50;;;;;;;;;;5111090;28;20188;-83
2023/01/06 01:20:05;;;;;;;6.87;2.43;;;;;;;;;;5093230;28;20260;-83
2023/01/06 01:22:35;;;;;;;5.83;2.63;;;;;;;;;;5093291;28;20263;-83
2023/01/06 01:25:04;;;;;;;2.00;1.10;;;;;;;;;;5092821;28;20409;-83
2023/01/06 01:27:32;;;;;;;6.10;2.37;;;;;;;;;;5093099;28;20204;-83
2023/01/06 01:30:00;;;;;;;4.23;1.60;;;;;;;;;;5092917;28;20198;-83
2023/01/06 01:32:29;;;;;;;6.37;2.50;;;;;;;;;;5092876;28;20204;-83
2023/01/06 01:34:57;;;;;;;3.93;2.33;;;;;;;;;;5092954;28;20237;-83
2023/01/06 01:37:25;;;;;;;7.67;2.57;;;;;;;;;;5110636;28;20199;-83
2023/01/06 01:39:55;;;;;;;2.53;2.17;;;;;;;;;;5093199;28;20210;-83
2023/01/06 01:42:23;;;;;;;1.70;1.60;;;;;;;;;;5092630;28;20214;-83
2023/01/06 01:45:02;;;;;;;7.57;2.50;;;;;;;;;;5092620;28;20222;-83
2023/01/06 01:47:36;;;;;;;2.43;1.10;;;;;;;;;;5110391;28;20209;-83
2023/01/06 01:50:07;;;;;;;3.30;1.93;;;;;;;;;;5092662;28;20294;-83
2023/01/06 01:52:35;;;;;;;8.37;3.73;;;;;;;;;;5092621;28;20244;-83
2023/01/06 01:55:06;;;;;;;4.53;2.07;;;;;;;;;;5106416;28;20235;-83
2023/01/06 01:57:36;;;;;;;2.10;1.70;;;;;;;;;;5072052;28;20356;-83
2023/01/06 02:00:05;;;;;;;5.17;2.23;;;;;;;;;;5072487;28;20200;-83
2023/01/06 02:02:33;;;;;;;5.10;2.10;;;;;;;;;;5072206;28;20207;-83
2023/01/06 02:05:02;;;;;;;7.20;3.00;;;;;;;;;;5072174;28;20297;-83
2023/01/06 02:07:30;;;;;;;7.57;2.30;;;;;;;;;;5071730;28;20209;-83
2023/01/06 02:10:02;;;;;;;8.23;3.60;;;;;;;;;;5090165;28;20230;-83
2023/01/06 02:12:32;;;;;;;4.03;2.53;;;;;;;;;;5071678;28;20205;-83
2023/01/06 02:15:01;;;;;;;2.83;1.80;;;;;;;;;;5084680;28;20202;-83
2023/01/06 02:17:40;;;;;;;3.43;1.97;;;;;;;;;;5076261;28;20208;-83
2023/01/06 02:20:22;;;;;;;8.20;2.07;;;;;;;;;;5058324;28;20210;-83
2023/01/06 02:23:02;;;;;;;1.20;1.20;;;;;;;;;;5058408;28;20215;-83
2023/01/06 02:25:43;;;;;;;4.37;2.10;;;;;;;;;;5058476;28;20221;-83
2023/01/06 02:28:30;;;;;;;1.57;1.03;;;;;;;;;;5058445;28;20203;-83
2023/01/06 02:31:13;;;;;;;6.70;2.47;;;;;;;;;;5058516;28;20197;-83
2023/01/06 02:33:45;;;;;;;2.87;1.67;;;;;;;;;;5057970;28;20203;-83
2023/01/06 02:36:18;;;;;;;3.73;2.40;;;;;;;;;;5058179;28;20263;-83
2023/01/06 02:38:53;;;;;;;2.30;1.70;;;;;;;;;;5058052;28;20259;-83
2023/01/06 02:41:27;;;;;;;3.97;1.60;;;;;;;;;;5058378;28;20288;-83
2023/01/06 02:44:01;;;;;;;3.77;2.13;;;;;;;;;;5058304;28;20239;-83
2023/01/06 02:46:39;;;;;;;2.73;1.60;;;;;;;;;;5058153;28;20250;-83
2023/01/06 02:49:10;;;;;;;1.77;1.40;;;;;;;;;;5075453;28;20269;-83
2023/01/06 02:51:43;;;;;;;1.97;1.20;;;;;;;;;;5058171;28;20212;-83
2023/01/06 02:54:15;;;;;;;2.47;1.80;;;;;;;;;;5057775;28;20224;-83
2023/01/06 02:56:46;;;;;;;1.23;1.20;;;;;;;;;;5058022;28;20262;-83
2023/01/06 02:59:19;;;;;;;1.90;1.70;;;;;;;;;;5058020;28;20201;-83
2023/01/06 03:01:51;;;;;;;5.37;2.30;;;;;;;;;;5057898;28;20227;-83
2023/01/06 03:04:23;;;;;;;1.87;1.63;;;;;;;;;;5057325;28;20240;-83
2023/01/06 03:06:53;;;;;;;1.43;1.33;;;;;;;;;;5057318;28;20201;-83
2023/01/06 03:09:23;;;;;;;3.47;1.70;;;;;;;;;;5075395;28;20242;-83
2023/01/06 03:11:52;;;;;;;3.97;1.90;;;;;;;;;;5057731;28;20209;-83
2023/01/06 03:14:23;;;;;;;3.70;1.93;;;;;;;;;;5075325;28;20235;-83
2023/01/06 03:16:53;;;;;;;2.27;1.70;;;;;;;;;;5075600;28;20226;-83
2023/01/06 03:19:22;;;;;;;4.33;1.87;;;;;;;;;;5075382;28;20235;-83
2023/01/06 03:21:51;;;;;;;2.13;1.20;;;;;;;;;;5057328;28;20201;-83
2023/01/06 03:24:19;;;;;;;3.50;2.00;;;;;;;;;;5074721;28;20221;-83
2023/01/06 03:26:51;;;;;;;2.37;2.17;;;;;;;;;;5074126;28;20294;-83
2023/01/06 03:29:19;;;;;;;4.50;2.10;;;;;;;;;;5057058;28;20259;-83
2023/01/06 03:31:50;;;;;;;3.47;1.93;;;;;;;;;;5057100;28;20200;-83
2023/01/06 03:34:23;;;;;;;4.83;2.40;;;;;;;;;;5057310;28;20238;-83
2023/01/06 03:36:57;;;;;;;1.40;1.30;;;;;;;;;;5057257;28;20216;-83
2023/01/06 03:39:30;;;;;;;1.60;1.20;;;;;;;;;;5056726;28;20257;-83
2023/01/06 03:45:06;;;;;;;2.40;1.27;;;;;;;;;;5057010;28;20249;-83
2023/01/06 03:47:38;;;;;;;2.37;1.20;;;;;;;;;;5056928;28;20236;-83
2023/01/06 03:50:10;;;;;;;2.07;1.33;;;;;;;;;;5074443;28;20335;-84
2023/01/06 03:52:43;;;;;;;5.03;2.53;;;;;;;;;;5056941;28;20252;-83
2023/01/06 03:55:15;;;;;;;3.00;1.67;;;;;;;;;;5056895;28;20229;-83
2023/01/06 03:57:45;;;;;;;5.53;2.60;;;;;;;;;;5056604;28;20206;-83
2023/01/06 04:00:16;;;;;;;3.80;1.90;;;;;;;;;;5056486;28;20231;-83
2023/01/06 04:02:46;;;;;;;4.97;2.23;;;;;;;;;;5056867;28;20209;-84
2023/01/06 04:05:17;;;;;;;2.73;1.43;;;;;;;;;;5056303;28;20248;-83
2023/01/06 04:07:46;;;;;;;2.83;1.87;;;;;;;;;;5056282;28;20292;-83
2023/01/06 04:10:15;;;;;;;2.97;2.33;;;;;;;;;;5074040;28;20201;-83
2023/01/06 04:12:43;;;;;;;4.57;2.80;;;;;;;;;;5056143;28;20208;-83
2023/01/06 04:15:12;;;;;;;1.73;1.63;;;;;;;;;;5056303;28;20204;-83
2023/01/06 04:17:41;;;;;;;3.80;2.70;;;;;;;;;;5056656;28;20197;-83
2023/01/06 04:20:11;;;;;;;3.43;2.03;;;;;;;;;;5056169;28;20201;-83
2023/01/06 04:22:41;;;;;;;2.27;2.03;;;;;;;;;;5056262;28;20196;-83
2023/01/06 04:25:09;;;;;;;2.30;1.27;;;;;;;;;;5073780;28;20266;-83
2023/01/06 04:27:38;;;;;;;2.27;2.03;;;;;;;;;;5056158;28;20315;-83
2023/01/06 04:30:07;;;;;;;4.83;3.00;;;;;;;;;;5056123;28;20238;-83
2023/01/06 04:32:35;;;;;;;3.40;2.10;;;;;;;;;;5056016;28;20239;-83
2023/01/06 04:35:03;;;;;;;3.63;2.20;;;;;;;;;;5056040;28;20200;-83
2023/01/06 04:37:32;;;;;;;2.40;2.10;;;;;;;;;;5056034;28;20224;-83
2023/01/06 04:40:02;;;;;;;5.93;3.07;;;;;;;;;;5056052;28;20262;-83
2023/01/06 04:43:02;;;;;;;2.53;2.10;;;;;;;;;;5055946;28;20205;-83
2023/01/06 04:45:19;;;;;;;7.37;1.90;;;;;;;;;;5073480;28;20300;-83
2023/01/06 04:47:48;;;;;;;5.70;2.30;;;;;;;;;;5055788;28;20193;-83
2023/01/06 04:50:16;;;;;;;4.60;3.07;;;;;;;;;;5055807;28;20278;-83
2023/01/06 04:52:45;;;;;;;4.90;2.20;;;;;;;;;;5056070;28;20212;-83
2023/01/06 04:55:14;;;;;;;3.03;1.53;;;;;;;;;;5055498;28;20270;-83
2023/01/06 04:57:43;;;;;;;3.93;2.63;;;;;;;;;;5073374;28;20192;-83
2023/01/06 05:00:12;;;;;;;3.27;2.90;;;;;;;;;;5055573;28;20202;-83
2023/01/06 05:02:40;;;;;;;3.27;1.50;;;;;;;;;;5055841;28;20236;-83
2023/01/06 05:05:09;;;;;;;4.43;2.20;;;;;;;;;;5073332;28;20238;-83
2023/01/06 05:07:37;;;;;;;2.30;1.70;;;;;;;;;;5055584;28;20208;-83
2023/01/06 05:10:07;;;;;;;4.23;2.80;;;;;;;;;;5055723;28;20552;-83
2023/01/06 05:12:37;;;;;;;3.00;1.70;;;;;;;;;;5055838;28;20208;-83
2023/01/06 05:15:06;;;;;;;7.97;3.00;;;;;;;;;;5055631;28;20214;-83
2023/01/06 05:17:34;;;;;;;3.40;2.37;;;;;;;;;;5055701;28;20227;-83
2023/01/06 05:20:03;;;;;;;6.97;2.60;;;;;;;;;;5073441;28;20200;-83
2023/01/06 05:22:31;;;;;;;3.83;2.37;;;;;;;;;;5073454;28;20193;-83
2023/01/06 05:25:00;;;;;;;2.57;2.07;;;;;;;;;;5055268;28;20231;-83
2023/01/06 05:27:28;;;;;;;5.80;2.83;;;;;;;;;;5055729;28;20200;-83
2023/01/06 05:29:58;;;;;;;5.23;3.17;;;;;;;;;;5055590;28;20211;-83
2023/01/06 05:32:26;;;;;;;3.07;2.50;;;;;;;;;;5073128;28;20250;-83
2023/01/06 05:34:54;;;;;;;4.43;3.20;;;;;;;;;;5055417;28;20200;-83
2023/01/06 05:37:23;;;;;;;7.10;3.73;;;;;;;;;;5055389;28;20204;-83
2023/01/06 05:39:51;;;;;;;4.67;2.90;;;;;;;;;;5073000;28;20201;-83
2023/01/06 05:42:20;;;;;;;3.57;2.10;;;;;;;;;;5055288;28;20201;-83
2023/01/06 05:44:48;;;;;;;2.67;2.10;;;;;;;;;;5055072;28;20192;-83
2023/01/06 05:47:18;;;;;;;2.80;2.20;;;;;;;;;;5054904;28;20224;-83
2023/01/06 05:49:46;;;;;;;6.07;3.60;;;;;;;;;;5055526;28;20192;-83
2023/01/06 05:52:14;;;;;;;6.17;3.60;;;;;;;;;;5059021;28;20207;-83
2023/01/06 05:54:43;;;;;;;5.57;3.10;;;;;;;;;;5058876;28;20254;-83
2023/01/06 05:57:11;;;;;;;6.50;2.70;;;;;;;;;;5059177;28;20219;-83
2023/01/06 05:59:40;;;;;;;3.23;2.47;;;;;;;;;;5058788;28;20205;-83
2023/01/06 06:02:08;;;;;;;5.57;2.80;;;;;;;;;;5058776;28;20218;-83
2023/01/06 06:04:38;;;;;;;4.37;2.67;;;;;;;;;;5058626;28;20323;-83
2023/01/06 06:07:06;;;;;;;3.53;2.53;;;;;;;;;;5076381;28;20221;-83
2023/01/06 06:09:35;;;;;;;7.50;2.40;;;;;;;;;;5058894;28;20207;-83
2023/01/06 06:12:03;;;;;;;3.33;2.00;;;;;;;;;;5076631;28;20212;-83
2023/01/06 06:14:32;;;;;;;5.23;3.10;;;;;;;;;;5058427;28;20202;-83
2023/01/06 06:17:00;;;;;;;4.43;1.80;;;;;;;;;;5058459;28;20200;-83
2023/01/06 06:19:28;;;;;;;3.57;2.57;;;;;;;;;;5058230;28;20207;-83
2023/01/06 06:21:59;;;;;;;6.27;2.30;;;;;;;;;;5058580;28;20195;-83
2023/01/06 06:24:27;;;;;;;8.30;1.97;;;;;;;;;;5058746;28;20254;-83
2023/01/06 06:26:55;;;;;;;1.63;1.53;;;;;;;;;;5058435;28;20213;-83
2023/01/06 06:29:24;;;;;;;5.27;1.37;;;;;;;;;;5058008;28;20237;-83
2023/01/06 06:31:52;;;;;;;5.20;2.93;;;;;;;;;;5075908;28;20200;-83
2023/01/06 06:34:21;;;;;;;10.47;4.53;;;;;;;;;;5058434;28;20210;-83
2023/01/06 06:36:49;;;;;;;8.03;3.50;;;;;;;;;;5076165;28;20197;-83
2023/01/06 06:39:19;;;;;;;12.77;4.27;;;;;;;;;;5058069;28;20212;-83
2023/01/06 06:41:47;;;;;;;16.57;5.77;;;;;;;;;;5057907;28;20200;-83
2023/01/06 06:44:16;;;;;;;7.53;2.80;;;;;;;;;;5058222;28;20284;-83
2023/01/06 06:46:44;;;;;;;11.07;4.60;;;;;;;;;;5057914;28;20232;-83
2023/01/06 06:49:12;;;;;;;8.20;2.27;;;;;;;;;;5057940;28;20197;-82
2023/01/06 06:51:41;;;;;;;9.17;2.97;;;;;;;;;;5057761;28;20201;-83
2023/01/06 06:54:09;;;;;;;14.77;4.53;;;;;;;;;;5057918;28;20254;-83
2023/01/06 06:56:39;;;;;;;8.57;3.70;;;;;;;;;;5057718;28;20218;-83
2023/01/06 06:59:07;;;;;;;11.90;3.83;;;;;;;;;;5057724;28;20211;-82
2023/01/06 07:01:36;;;;;;;8.20;2.40;;;;;;;;;;5057706;28;20285;-83
2023/01/06 07:04:05;;;;;;;10.30;3.30;;;;;;;;;;5057661;28;20232;-83
2023/01/06 07:06:33;;;;;;;7.73;2.47;;;;;;;;;;5057534;28;20220;-84
2023/01/06 07:09:02;;;;;;;2.30;1.00;;;;;;;;;;5057461;28;20201;-84
2023/01/06 07:11:30;;;;;;;4.33;1.67;;;;;;;;;;5057357;28;20205;-86
2023/01/06 07:14:00;;;;;;;9.40;1.90;;;;;;;;;;5057320;28;20197;-83
2023/01/06 07:16:29;;;;;;;4.10;1.60;;;;;;;;;;5057164;28;20245;-84
2023/01/06 07:18:58;;;;;;;0.83;0.83;;;;;;;;;;5057630;28;20204;-84
2023/01/06 07:21:26;;;;;;;9.90;1.23;;;;;;;;;;5057369;28;20204;-84
2023/01/06 07:23:55;;;;;;;16.03;2.23;;;;;;;;;;5057406;28;20207;-84
2023/01/06 07:26:23;;;;;;;10.37;1.63;;;;;;;;;;5057312;28;20210;-84
2023/01/06 07:28:52;;;;;;;4.50;1.70;;;;;;;;;;5057043;28;20201;-84
2023/01/06 07:31:22;;;;;;;3.00;0.93;;;;;;;;;;5056959;28;20295;-84
2023/01/06 07:33:50;;;;;;;1.67;0.90;;;;;;;;;;5057211;28;20207;-84
2023/01/06 07:36:21;;;;;;;4.47;1.63;;;;;;;;;;5057100;28;20211;-83
2023/01/06 07:38:50;;;;;;;2.37;1.30;;;;;;;;;;5057382;28;20200;-83
2023/01/06 07:41:18;;;;;;;4.60;2.00;;;;;;;;;;5056924;28;20206;-84
2023/01/06 07:43:47;;;;;;;13.93;2.50;;;;;;;;;;5074476;28;20200;-84
2023/01/06 07:46:16;;;;;;;7.30;1.67;;;;;;;;;;5074375;28;20227;-83
2023/01/06 07:48:46;;;;;;;2.87;1.90;;;;;;;;;;5056659;28;20207;-84
2023/01/06 07:51:14;;;;;;;9.63;3.80;;;;;;;;;;5056725;28;20201;-84
2023/01/06 07:53:43;;;;;;;3.00;1.40;;;;;;;;;;5056998;28;20238;-83
2023/01/06 07:56:12;;;;;;;2.73;1.37;;;;;;;;;;5056655;28;20391;-85
2023/01/06 07:58:40;;;;;;;4.97;2.50;;;;;;;;;;5056613;28;20310;-85
2023/01/06 08:01:12;;;;;;;2.77;1.67;;;;;;;;;;5056720;28;20198;-85
2023/01/06 08:03:43;;;;;;;8.43;2.93;;;;;;;;;;5074109;28;20231;-85
2023/01/06 08:06:13;;;;;;;5.30;1.80;;;;;;;;;;5073927;28;20231;-85
2023/01/06 08:08:42;;;;;;;4.03;1.53;;;;;;;;;;5056679;28;20272;-85
2023/01/06 08:11:12;;;;;;;1.80;1.50;;;;;;;;;;5056220;28;20275;-85
2023/01/06 08:13:40;;;;;;;6.30;1.33;;;;;;;;;;5055612;28;20208;-85
2023/01/06 08:16:10;;;;;;;7.10;2.00;;;;;;;;;;5056454;28;20294;-86
2023/01/06 08:18:39;;;;;;;5.53;1.70;;;;;;;;;;5073950;28;20200;-85
2023/01/06 08:21:09;;;;;;;4.13;1.40;;;;;;;;;;5073794;28;20207;-85
2023/01/06 08:23:39;;;;;;;2.77;1.43;;;;;;;;;;5056179;28;20210;-86
2023/01/06 08:26:12;;;;;;;6.83;2.50;;;;;;;;;;5055999;28;20206;-86
2023/01/06 08:28:41;;;;;;;7.50;1.40;;;;;;;;;;5056052;28;20213;-85
2023/01/06 08:31:12;;;;;;;3.00;1.27;;;;;;;;;;5055873;28;20206;-85
2023/01/06 08:33:41;;;;;;;1.53;1.43;;;;;;;;;;5056041;28;20211;-85
2023/01/06 08:36:10;;;;;;;8.03;2.33;;;;;;;;;;5055995;28;20207;-86
2023/01/06 08:38:40;;;;;;;1.50;1.40;;;;;;;;;;5055870;28;20199;-86
2023/01/06 08:41:10;;;;;;;2.33;1.47;;;;;;;;;;5055894;28;20204;-92
2023/01/06 08:43:40;;;;;;;24.03;1.60;;;;;;;;;;5055992;28;20297;-92
2023/01/06 08:46:11;;;;;;;3.67;1.10;;;;;;;;;;5056205;28;20201;-93
2023/01/06 08:48:40;;;;;;;9.27;2.60;;;;;;;;;;5056089;28;20243;-92
2023/01/06 08:51:13;;;;;;;10.80;2.60;;;;;;;;;;5055479;28;20211;-93
2023/01/06 08:53:43;;;;;;;3.20;1.67;;;;;;;;;;5056096;28;20204;-92
2023/01/06 08:56:13;;;;;;;4.27;1.50;;;;;;;;;;5055496;28;20221;-92
2023/01/06 08:58:42;;;;;;;3.77;1.53;;;;;;;;;;5056038;28;20198;-91
2023/01/06 09:01:15;;;;;;;1.93;1.17;;;;;;;;;;5056163;28;20203;-92
2023/01/06 09:03:45;;;;;;;2.13;1.37;;;;;;;;;;5056291;28;20238;-92
2023/01/06 09:06:14;;;;;;;4.10;1.37;;;;;;;;;;5056231;28;20198;-92
2023/01/06 09:08:44;;;;;;;1.87;1.13;;;;;;;;;;5055818;28;20224;-92
2023/01/06 09:11:12;;;;;;;8.17;2.33;;;;;;;;;;5055946;28;20243;-91
2023/01/06 09:13:41;;;;;;;3.47;1.70;;;;;;;;;;5055705;28;20203;-92
2023/01/06 09:16:13;;;;;;;8.47;1.77;;;;;;;;;;5056566;28;20199;-91
2023/01/06 09:18:47;;;;;;;2.97;1.57;;;;;;;;;;5056068;28;20202;-93
2023/01/06 09:21:16;;;;;;;6.13;2.07;;;;;;;;;;5056147;28;20204;-92
2023/01/06 09:23:46;;;;;;;3.10;1.93;;;;;;;;;;5056357;28;20235;-92
2023/01/06 09:26:18;;;;;;;4.30;3.07;;;;;;;;;;5058310;28;20204;-93
2023/01/06 09:28:49;;;;;;;7.60;3.33;;;;;;;;;;5059705;28;20224;-92
2023/01/06 09:31:18;;;;;;;2.20;1.80;;;;;;;;;;5059590;28;20207;-88
2023/01/06 09:33:47;;;;;;;5.13;2.17;;;;;;;;;;5059530;28;20199;-92
2023/01/06 09:36:16;;;;;;;3.03;1.23;;;;;;;;;;5077379;28;20298;-92
2023/01/06 09:38:44;;;;;;;5.70;1.87;;;;;;;;;;5059714;28;20207;-92
2023/01/06 09:41:27;;;;;;;5.23;2.13;;;;;;;;;;5059936;28;20240;-92
2023/01/06 09:43:59;;;;;;;3.20;1.97;;;;;;;;;;5059453;28;20276;-92
2023/01/06 09:46:29;;;;;;;4.37;1.77;;;;;;;;;;5059398;28;20208;-92
2023/01/06 09:49:00;;;;;;;7.00;3.10;;;;;;;;;;5059050;28;20218;-91
2023/01/06 09:51:29;;;;;;;1.57;1.33;;;;;;;;;;5059318;28;20211;-91
2023/01/06 09:54:00;;;;;;;5.07;2.47;;;;;;;;;;5058973;28;20198;-92
2023/01/06 09:56:31;;;;;;;4.50;1.87;;;;;;;;;;5059119;28;20220;-91
2023/01/06 09:59:05;;;;;;;1.30;1.10;;;;;;;;;;5058969;28;20273;-92
2023/01/06 10:01:37;;;;;;;6.90;2.80;;;;;;;;;;5059307;28;20203;-91
2023/01/06 10:04:06;;;;;;;11.63;3.30;;;;;;;;;;5059003;28;20302;-92
2023/01/06 10:06:37;;;;;;;1.90;1.80;;;;;;;;;;5058803;28;20201;-90
2023/01/06 10:09:11;;;;;;;2.33;1.17;;;;;;;;;;5058532;28;20214;-91
2023/01/06 10:11:45;;;;;;;0.93;0.93;;;;;;;;;;5058657;28;20246;-91
2023/01/06 10:14:17;;;;;;;1.37;1.27;;;;;;;;;;5058617;28;20262;-92
2023/01/06 10:16:55;;;;;;;2.80;1.60;;;;;;;;;;5076189;28;20205;-91
2023/01/06 10:19:29;;;;;;;3.07;1.63;;;;;;;;;;5059350;28;20193;-92
2023/01/06 10:22:02;;;;;;;2.40;1.00;;;;;;;;;;5058436;28;20195;-92
2023/01/06 10:24:38;;;;;;;2.17;1.20;;;;;;;;;;5058537;28;20200;-91
2023/01/06 10:27:14;;;;;;;8.03;2.13;;;;;;;;;;5058475;28;20200;-92
2023/01/06 10:29:44;;;;;;;6.90;2.90;;;;;;;;;;5058213;28;20227;-92
2023/01/06 10:32:16;;;;;;;10.17;2.57;;;;;;;;;;5076169;28;20223;-92
2023/01/06 10:34:45;;;;;;;3.93;1.67;;;;;;;;;;5058375;28;20213;-91
2023/01/06 10:37:22;;;;;;;14.20;2.80;;;;;;;;;;5057860;28;20296;-89
2023/01/06 10:39:55;;;;;;;5.57;1.33;;;;;;;;;;5076275;28;20283;-91
2023/01/06 10:45:14;;;;;;;5.40;1.43;;;;;;;;;;5058284;28;20261;-91
2023/01/06 10:47:44;;;;;;;4.23;3.13;;;;;;;;;;5057802;28;20235;-91
2023/01/06 10:50:14;;;;;;;4.70;1.47;;;;;;;;;;5057984;28;20279;-91
2023/01/06 10:52:43;;;;;;;5.77;1.53;;;;;;;;;;5057872;28;20208;-92
2023/01/06 10:55:19;;;;;;;2.17;0.80;;;;;;;;;;5058053;28;20216;-91
2023/01/06 10:57:50;;;;;;;4.83;1.27;;;;;;;;;;5057990;28;20290;-91
2023/01/06 11:00:21;;;;;;;7.17;2.63;;;;;;;;;;5075734;28;20190;-91
2023/01/06 11:02:50;;;;;;;5.20;2.10;;;;;;;;;;5075563;28;20258;-90
2023/01/06 11:05:20;;;;;;;11.60;2.07;;;;;;;;;;5057923;28;20232;-91
2023/01/06 11:07:50;;;;;;;3.83;1.77;;;;;;;;;;5057754;28;20299;-91
2023/01/06 11:10:26;;;;;;;7.83;2.97;;;;;;;;;;5057835;28;20225;-91
2023/01/06 11:12:57;;;;;;;3.10;1.27;;;;;;;;;;5075466;28;20227;-90
2023/01/06 11:15:30;;;;;;;5.90;1.50;;;;;;;;;;5057401;28;20205;-90
2023/01/06 11:17:58;;;;;;;1.20;1.10;;;;;;;;;;5057523;28;20205;-91
2023/01/06 11:20:31;;;;;;;3.90;1.63;;;;;;;;;;5057655;28;20196;-91
2023/01/06 11:23:20;;;;;;;5.10;2.17;;;;;;;;;;5057303;28;20277;-91
2023/01/06 11:26:03;;;;;;;4.23;1.63;;;;;;;;;;5057470;28;20208;-90
2023/01/06 11:28:33;;;;;;;2.23;1.60;;;;;;;;;;5057474;28;20201;-91
2023/01/06 11:31:03;;;;;;;3.13;2.90;;;;;;;;;;5057639;28;20198;-92
2023/01/06 11:33:32;;;;;;;4.93;1.87;;;;;;;;;;5057516;28;20251;-91
2023/01/06 11:36:08;;;;;;;0.90;0.80;;;;;;;;;;5057281;28;20201;-91
2023/01/06 11:38:47;;;;;;;1.83;1.50;;;;;;;;;;5057229;28;20193;-92
2023/01/06 11:41:21;;;;;;;4.37;1.73;;;;;;;;;;5057268;28;20262;-91
2023/01/06 11:43:52;;;;;;;1.87;1.00;;;;;;;;;;5057186;28;20207;-91
2023/01/06 11:46:24;;;;;;;2.60;2.40;;;;;;;;;;5057090;28;20274;-91
2023/01/06 11:48:57;;;;;;;8.03;1.80;;;;;;;;;;5056288;28;20265;-91
2023/01/06 11:51:45;;;;;;;8.07;2.40;;;;;;;;;;5074404;28;20201;-90
2023/01/06 11:54:25;;;;;;;4.63;1.23;;;;;;;;;;5056815;28;20208;-91
2023/01/06 11:57:00;;;;;;;5.60;2.13;;;;;;;;;;5056910;28;20346;-91
2023/01/06 11:59:38;;;;;;;3.13;2.30;;;;;;;;;;5056607;28;20284;-90
2023/01/06 12:02:09;;;;;;;5.40;1.17;;;;;;;;;;5056556;28;20201;-91
2023/01/06 12:04:42;;;;;;;4.53;1.97;;;;;;;;;;5055943;28;20308;-91
2023/01/06 12:07:14;;;;;;;7.43;2.30;;;;;;;;;;5056830;28;20198;-91
2023/01/06 12:09:44;;;;;;;6.07;2.03;;;;;;;;;;5056308;28;20224;-91
2023/01/06 12:12:16;;;;;;;5.43;1.63;;;;;;;;;;5056755;28;20204;-91
2023/01/06 12:14:46;;;;;;;2.87;1.60;;;;;;;;;;5074000;28;20198;-91
2023/01/06 12:17:17;;;;;;;7.03;1.73;;;;;;;;;;5056246;28;20205;-92
2023/01/06 12:19:49;;;;;;;2.00;1.30;;;;;;;;;;5073892;28;20206;-91
2023/01/06 12:22:23;;;;;;;5.40;1.50;;;;;;;;;;5056340;28;20239;-91
2023/01/06 12:24:52;;;;;;;3.97;1.47;;;;;;;;;;5056556;28;20226;-91
2023/01/06 12:27:27;;;;;;;7.80;2.07;;;;;;;;;;5056621;28;20296;-91
2023/01/06 12:29:59;;;;;;;8.93;1.90;;;;;;;;;;5056301;28;20224;-91
2023/01/06 12:32:30;;;;;;;7.27;2.80;;;;;;;;;;5074119;28;20231;-91
2023/01/06 12:35:00;;;;;;;5.30;1.97;;;;;;;;;;5056150;28;20204;-91
2023/01/06 12:37:32;;;;;;;1.83;1.73;;;;;;;;;;5073973;28;20200;-91
2023/01/06 12:40:04;;;;;;;8.70;2.70;;;;;;;;;;5055789;28;20243;-91
2023/01/06 12:42:36;;;;;;;6.70;1.77;;;;;;;;;;5073760;28;20201;-91
2023/01/06 12:45:11;;;;;;;4.73;1.67;;;;;;;;;;5056000;28;20295;-91
2023/01/06 12:47:44;;;;;;;1.80;1.53;;;;;;;;;;5056107;28;20208;-91
2023/01/06 12:50:17;;;;;;;3.67;1.73;;;;;;;;;;5056455;28;20316;-87
2023/01/06 12:52:48;;;;;;;10.27;2.33;;;;;;;;;;5055975;28;20197;-87
2023/01/06 12:55:19;;;;;;;3.43;1.30;;;;;;;;;;5055757;28;20222;-87
2023/01/06 12:57:51;;;;;;;4.37;2.17;;;;;;;;;;5055999;28;20226;-87
2023/01/06 13:00:27;;;;;;;7.97;1.57;;;;;;;;;;5055354;28;20227;-87
2023/01/06 13:03:03;;;;;;;5.73;2.13;;;;;;;;;;5055505;28;20234;-87
2023/01/06 13:05:41;;;;;;;10.63;2.17;;;;;;;;;;5055812;28;20226;-87
2023/01/06 13:08:18;;;;;;;3.63;1.87;;;;;;;;;;5056025;28;20200;-87
2023/01/06 13:10:49;;;;;;;2.43;1.13;;;;;;;;;;5055463;28;20225;-87
2023/01/06 13:13:27;;;;;;;5.00;2.00;;;;;;;;;;5055738;28;20204;-87
2023/01/06 13:15:57;;;;;;;9.57;3.33;;;;;;;;;;5055738;28;20211;-87
2023/01/06 13:18:29;;;;;;;3.67;1.43;;;;;;;;;;5055635;28;20261;-87
2023/01/06 13:21:01;;;;;;;4.53;0.90;;;;;;;;;;5055624;28;20212;-87
2023/01/06 13:23:44;;;;;;;3.43;1.67;;;;;;;;;;5055782;28;20208;-87
2023/01/06 13:26:20;;;;;;;5.80;2.93;;;;;;;;;;5055712;28;20224;-87
2023/01/06 13:28:54;;;;;;;4.10;1.97;;;;;;;;;;5055397;28;20217;-87
2023/01/06 13:31:41;;;;;;;13.40;2.77;;;;;;;;;;5055673;28;20216;-87
2023/01/06 13:34:31;;;;;;;6.77;1.40;;;;;;;;;;5055233;28;20301;-87
2023/01/06 13:37:18;;;;;;;3.70;1.93;;;;;;;;;;5055469;28;20209;-87
2023/01/06 13:39:49;;;;;;;7.87;2.47;;;;;;;;;;5055493;28;20199;-87
2023/01/06 13:42:21;;;;;;;2.33;1.73;;;;;;;;;;5055215;28;20199;-87
2023/01/06 13:44:49;;;;;;;1.50;1.27;;;;;;;;;;5055504;28;20203;-87
2023/01/06 13:47:19;;;;;;;1.50;1.07;;;;;;;;;;5072969;28;20204;-87
2023/01/06 13:49:50;;;;;;;6.60;2.93;;;;;;;;;;5055259;28;20206;-87
2023/01/06 13:52:20;;;;;;;1.40;1.30;;;;;;;;;;5055374;28;20208;-87
2023/01/06 13:55:02;;;;;;;1.63;1.50;;;;;;;;;;5055017;28;20265;-87
2023/01/06 13:57:34;;;;;;;1.23;1.07;;;;;;;;;;5073526;28;20294;-87
2023/01/06 14:00:15;;;;;;;4.77;1.80;;;;;;;;;;5055230;28;20197;-87
2023/01/06 14:03:14;;;;;;;5.70;2.00;;;;;;;;;;5055062;28;20210;-87
2023/01/06 14:05:52;;;;;;;2.57;1.47;;;;;;;;;;5055257;28;20215;-84
2023/01/06 14:08:21;;;;;;;2.43;1.53;;;;;;;;;;5055040;28;20282;-87
2023/01/06 14:10:57;;;;;;;1.23;0.90;;;;;;;;;;5055006;28;20215;-87
2023/01/06 14:13:27;;;;;;;4.93;1.73;;;;;;;;;;5058696;28;20200;-87
2023/01/06 14:15:57;;;;;;;2.53;1.27;;;;;;;;;;5058505;28;20262;-87
2023/01/06 14:18:30;;;;;;;5.30;2.07;;;;;;;;;;5058624;28;20293;-87
2023/01/06 14:21:03;;;;;;;2.83;1.50;;;;;;;;;;5058598;28;20196;-87
2023/01/06 14:23:33;;;;;;;6.33;1.60;;;;;;;;;;5058775;28;20208;-87
2023/01/06 14:26:02;;;;;;;1.53;1.40;;;;;;;;;;5076081;28;20207;-87
2023/01/06 14:28:31;;;;;;;8.60;1.30;;;;;;;;;;5058586;28;20204;-86
2023/01/06 14:31:18;;;;;;;3.47;1.50;;;;;;;;;;5075783;28;20230;-87
2023/01/06 14:33:52;;;;;;;4.53;2.90;;;;;;;;;;5075894;28;20200;-87
2023/01/06 14:36:22;;;;;;;4.90;1.93;;;;;;;;;;5058307;28;20198;-87
2023/01/06 14:38:53;;;;;;;2.27;1.40;;;;;;;;;;5058089;28;20200;-87
2023/01/06 14:41:23;;;;;;;3.93;2.40;;;;;;;;;;5058027;28;20203;-87
2023/01/06 14:43:54;;;;;;;1.10;1.10;;;;;;;;;;5058236;28;20212;-87
2023/01/06 14:46:24;;;;;;;3.67;1.63;;;;;;;;;;5057937;28;20295;-87
2023/01/06 14:48:56;;;;;;;5.03;1.70;;;;;;;;;;5075883;28;20197;-87
2023/01/06 14:51:26;;;;;;;12.00;1.73;;;;;;;;;;5058053;28;20218;-87
2023/01/06 14:53:58;;;;;;;5.80;3.30;;;;;;;;;;5058226;28;20203;-87
2023/01/06 14:56:28;;;;;;;3.17;0.87;;;;;;;;;;5057913;28;20218;-87
2023/01/06 14:59:06;;;;;;;2.83;1.40;;;;;;;;;;5075778;28;20217;-87
2023/01/06 15:01:36;;;;;;;1.17;1.10;;;;;;;;;;5057788;28;20202;-87
2023/01/06 15:04:05;;;;;;;1.23;1.13;;;;;;;;;;5057613;28;20240;-86
2023/01/06 15:06:34;;;;;;;9.40;1.90;;;;;;;;;;5057389;28;20198;-86
2023/01/06 15:09:13;;;;;;;4.00;2.13;;;;;;;;;;5075566;28;20207;-87
2023/01/06 15:11:42;;;;;;;3.70;2.80;;;;;;;;;;5057516;28;20219;-86
2023/01/06 15:14:29;;;;;;;4.07;2.10;;;;;;;;;;5057782;28;20214;-87
2023/01/06 15:17:01;;;;;;;4.33;1.50;;;;;;;;;;5057661;28;20294;-87